Harrisburg, Pennsylvania
Current Conditions -  °F | °C
As of 10:56 AM on Friday 28 Nov 2014 (Local Time) from KCXY Reporting Station
Broken Clouds Broken Clouds  
Wind Chill: 23°   Ceiling: 5000
Heat Index: 33°   Visibility: 10mi
Dew Point: 14°   Wind: 15mph
Humidity: 46%   Direction: 310°NW
Pressure: 30.28"   Gusts: 22mph
Location:  40.26°N, 76.88°W
Report Text: KCXY 281556Z 31013G19KT 10SM BKN050 01/M10 A3028 RMK AO2 SLP257 T00061100
Loading
Personal Weather Stations






























Interactive Weather Map New forecast layout! Learn more

10-Day Weather Forecast

Advertisements
Track Severe Weather on mobile